Time;durP1;ratioP1;P1;durP2;ratioP2;P2;SDS_P1;SDS_P2;PMS_P1;PMS_P2;Temp;Humidity;BMP_temperature;BMP_pressure;BME280_temperature;BME280_humidity;BME280_pressure;Samples;Min_cycle;Max_cycle;Signal;HPM_P1;HPM_P2
2023/05/29 00:01:27;;;;;;;12.80;3.05;;;11.00;99.90;;;;;;5019849;28;20469;-78
2023/05/29 00:03:54;;;;;;;15.38;2.00;;;11.00;99.90;;;;;;5018472;28;20128;-78
2023/05/29 00:06:21;;;;;;;14.25;2.15;;;10.90;99.90;;;;;;5056143;28;20463;-78
2023/05/29 00:08:48;;;;;;;9.68;2.17;;;10.90;99.90;;;;;;5057416;28;20136;-78
2023/05/29 00:11:15;;;;;;;14.27;2.42;;;10.90;99.90;;;;;;5038411;28;20051;-78
2023/05/29 00:13:41;;;;;;;14.50;2.60;;;10.90;99.90;;;;;;5039462;28;20083;-78
2023/05/29 00:16:09;;;;;;;15.38;2.45;;;10.80;99.90;;;;;;5034881;28;20411;-79
2023/05/29 00:18:35;;;;;;;8.25;2.05;;;10.80;99.90;;;;;;5037111;28;20037;-78
2023/05/29 00:21:02;;;;;;;11.50;2.63;;;10.80;99.90;;;;;;5037001;28;20353;-79
2023/05/29 00:23:29;;;;;;;15.95;2.40;;;10.80;99.90;;;;;;5035780;28;20069;-79
2023/05/29 00:25:56;;;;;;;11.20;2.85;;;10.70;99.90;;;;;;5029305;28;20073;-78
2023/05/29 00:28:22;;;;;;;18.05;2.83;;;10.70;99.90;;;;;;5039682;28;20036;-79
2023/05/29 00:30:49;;;;;;;12.40;2.13;;;10.60;99.90;;;;;;5055695;28;20143;-78
2023/05/29 00:33:16;;;;;;;7.43;1.95;;;10.70;99.90;;;;;;5056735;28;20107;-78
2023/05/29 00:35:42;;;;;;;9.13;1.80;;;10.60;99.90;;;;;;5038029;28;20437;-78
2023/05/29 00:38:09;;;;;;;11.70;2.20;;;10.60;99.90;;;;;;5039307;28;20099;-79
2023/05/29 00:40:36;;;;;;;10.05;2.15;;;10.60;99.90;;;;;;5056553;28;20041;-79
2023/05/29 00:43:03;;;;;;;11.23;1.90;;;10.60;99.90;;;;;;5047600;28;20048;-79
2023/05/29 00:45:31;;;;;;;10.77;2.20;;;10.50;99.90;;;;;;5075846;28;20049;-79
2023/05/29 00:47:58;;;;;;;9.13;1.55;;;10.50;99.90;;;;;;5076553;28;20051;-78
2023/05/29 00:50:25;;;;;;;13.80;2.53;;;10.50;99.90;;;;;;5074501;28;20040;-78
2023/05/29 00:52:51;;;;;;;15.43;2.15;;;10.40;99.90;;;;;;5076236;28;20037;-78
2023/05/29 00:55:18;;;;;;;7.80;2.08;;;10.40;99.90;;;;;;5075465;28;20044;-79
2023/05/29 00:57:47;;;;;;;8.52;1.75;;;10.40;99.90;;;;;;5074301;28;20057;-79
2023/05/29 01:00:14;;;;;;;14.48;2.08;;;10.30;99.90;;;;;;5075513;28;20079;-79
2023/05/29 01:02:44;;;;;;;12.70;2.30;;;10.30;99.90;;;;;;5074014;28;20079;-79
2023/05/29 01:05:12;;;;;;;15.95;2.53;;;10.30;99.90;;;;;;5055118;28;20041;-78
2023/05/29 01:07:38;;;;;;;15.23;2.53;;;10.30;99.90;;;;;;5055183;28;20044;-78
2023/05/29 01:10:05;;;;;;;11.85;2.10;;;10.30;99.90;;;;;;5053901;28;20044;-78
2023/05/29 01:12:33;;;;;;;10.93;1.88;;;10.20;99.90;;;;;;5055870;28;20037;-78
2023/05/29 01:15:01;;;;;;;13.48;2.60;;;10.20;99.90;;;;;;5053716;28;20118;-78
2023/05/29 01:17:29;;;;;;;14.25;2.38;;;10.20;99.90;;;;;;5053344;28;20041;-78
2023/05/29 01:19:55;;;;;;;12.40;2.10;;;10.10;99.90;;;;;;5038478;28;20087;-78
2023/05/29 01:22:22;;;;;;;14.73;1.88;;;10.10;99.90;;;;;;5053717;28;20068;-78
2023/05/29 01:24:50;;;;;;;23.70;2.78;;;10.10;99.90;;;;;;5038621;28;20371;-78
2023/05/29 01:27:17;;;;;;;14.70;2.10;;;10.10;99.90;;;;;;5074679;28;20037;-79
2023/05/29 01:29:44;;;;;;;6.18;2.13;;;10.00;99.90;;;;;;5057098;28;20048;-78
2023/05/29 01:32:11;;;;;;;13.00;2.50;;;10.00;99.90;;;;;;5075516;28;20071;-78
2023/05/29 01:34:37;;;;;;;11.65;2.00;;;10.00;99.90;;;;;;5074061;28;20463;-79
2023/05/29 01:37:04;;;;;;;9.23;1.70;;;10.00;99.90;;;;;;5074525;28;20037;-79
2023/05/29 01:39:31;;;;;;;9.30;1.65;;;10.00;99.90;;;;;;5075339;28;20139;-79
2023/05/29 01:41:57;;;;;;;13.60;2.17;;;9.90;99.90;;;;;;5075431;28;20041;-79
2023/05/29 01:44:24;;;;;;;13.48;2.58;;;10.00;99.90;;;;;;5055940;28;20088;-78
2023/05/29 01:46:51;;;;;;;14.80;2.03;;;9.90;99.90;;;;;;5037932;28;20037;-78
2023/05/29 01:49:18;;;;;;;13.55;2.95;;;9.90;99.90;;;;;;5036687;28;20383;-78
2023/05/29 01:51:44;;;;;;;12.50;1.83;;;9.90;99.90;;;;;;5037537;28;20148;-79
2023/05/29 01:54:11;;;;;;;10.75;2.53;;;9.80;99.90;;;;;;5054660;28;20422;-78
2023/05/29 01:56:38;;;;;;;8.68;1.95;;;9.90;99.90;;;;;;5054239;28;20127;-79
2023/05/29 01:59:04;;;;;;;20.85;2.60;;;9.90;99.90;;;;;;5033804;28;20049;-79
2023/05/29 02:01:31;;;;;;;14.57;2.35;;;9.80;99.90;;;;;;5026255;28;20041;-78
2023/05/29 02:03:58;;;;;;;11.35;2.25;;;9.80;99.90;;;;;;5053937;28;20052;-79
2023/05/29 02:06:25;;;;;;;15.63;2.47;;;9.80;99.90;;;;;;5042121;28;20034;-79
2023/05/29 02:08:52;;;;;;;11.27;2.33;;;9.80;99.90;;;;;;5017189;28;20049;-78
2023/05/29 02:11:18;;;;;;;11.77;2.25;;;9.80;99.90;;;;;;5016444;28;20140;-78
2023/05/29 02:13:45;;;;;;;10.73;1.75;;;9.80;99.90;;;;;;5017040;28;20064;-78
2023/05/29 02:16:12;;;;;;;13.43;2.22;;;9.80;99.90;;;;;;5033799;28;20099;-78
2023/05/29 02:18:39;;;;;;;10.45;2.08;;;9.70;99.90;;;;;;5047866;28;20057;-78
2023/05/29 02:21:06;;;;;;;10.27;2.35;;;9.70;99.90;;;;;;5036697;28;20141;-78
2023/05/29 02:23:33;;;;;;;8.32;2.35;;;9.70;99.90;;;;;;5036274;28;20348;-78
2023/05/29 02:26:00;;;;;;;10.48;2.00;;;9.70;99.90;;;;;;5054574;28;20464;-78
2023/05/29 02:28:27;;;;;;;11.25;2.08;;;9.70;99.90;;;;;;5037155;28;20131;-78
2023/05/29 02:30:54;;;;;;;9.13;1.80;;;9.70;99.90;;;;;;5019309;28;20131;-79
2023/05/29 02:33:21;;;;;;;8.55;2.08;;;9.70;99.90;;;;;;5037038;28;20059;-79
2023/05/29 02:35:47;;;;;;;13.48;1.88;;;9.70;99.90;;;;;;5035704;28;20106;-79
2023/05/29 02:38:15;;;;;;;12.45;1.80;;;9.60;99.90;;;;;;5054494;28;20075;-79
2023/05/29 02:40:41;;;;;;;17.15;1.77;;;9.60;99.90;;;;;;5054139;28;20055;-78
2023/05/29 02:43:08;;;;;;;14.00;2.17;;;9.60;99.90;;;;;;5046971;28;20084;-78
2023/05/29 02:45:35;;;;;;;9.07;2.50;;;9.60;99.90;;;;;;5074450;28;20421;-78
2023/05/29 02:48:01;;;;;;;15.93;1.95;;;9.60;99.90;;;;;;5057311;28;20050;-79
2023/05/29 02:50:28;;;;;;;7.97;1.60;;;9.60;99.90;;;;;;5072902;28;20072;-79
2023/05/29 02:52:55;;;;;;;12.73;2.08;;;9.60;99.90;;;;;;5074338;28;20037;-78
2023/05/29 02:55:22;;;;;;;8.35;1.67;;;9.60;99.90;;;;;;5073128;28;20046;-78
2023/05/29 02:57:52;;;;;;;11.32;2.30;;;9.50;99.90;;;;;;5057724;28;20106;-78
2023/05/29 03:00:20;;;;;;;10.88;2.10;;;9.50;99.90;;;;;;5052996;28;20487;-78
2023/05/29 03:02:47;;;;;;;12.20;1.88;;;9.50;99.90;;;;;;5053159;28;20040;-79
2023/05/29 03:05:14;;;;;;;8.88;1.63;;;9.50;99.90;;;;;;5053443;28;20049;-79
2023/05/29 03:07:41;;;;;;;5.32;1.70;;;9.40;99.90;;;;;;5053470;28;20068;-79
2023/05/29 03:10:09;;;;;;;9.77;1.65;;;9.40;99.90;;;;;;5051844;28;20053;-79
2023/05/29 03:12:36;;;;;;;9.05;1.95;;;9.40;99.90;;;;;;5053316;28;20041;-78
2023/05/29 03:15:02;;;;;;;11.35;1.73;;;9.40;99.90;;;;;;5053254;28;20045;-78
2023/05/29 03:17:30;;;;;;;6.80;2.00;;;9.30;99.90;;;;;;5035503;28;20136;-78
2023/05/29 03:19:57;;;;;;;14.68;1.83;;;9.30;99.90;;;;;;5052858;28;20072;-78
2023/05/29 03:22:24;;;;;;;13.90;1.92;;;9.30;99.90;;;;;;5052140;28;20049;-78
2023/05/29 03:24:51;;;;;;;17.63;2.25;;;9.30;99.90;;;;;;5054029;28;20430;-78
2023/05/29 03:27:18;;;;;;;5.35;1.70;;;9.20;99.90;;;;;;5040207;28;20036;-79
2023/05/29 03:29:48;;;;;;;8.25;1.92;;;9.20;99.90;;;;;;5055534;28;20068;-78
2023/05/29 03:32:15;;;;;;;13.45;1.88;;;9.20;99.90;;;;;;5057820;28;20044;-78
2023/05/29 03:34:42;;;;;;;13.60;2.38;;;9.10;99.90;;;;;;5056838;28;20036;-78
2023/05/29 03:37:08;;;;;;;7.28;1.98;;;9.10;99.90;;;;;;5055963;28;20061;-78
2023/05/29 03:39:35;;;;;;;13.57;2.10;;;9.10;99.90;;;;;;5056468;28;20041;-78
2023/05/29 03:42:03;;;;;;;21.10;2.40;;;9.10;99.90;;;;;;5056813;28;20493;-79
2023/05/29 03:44:30;;;;;;;8.80;2.38;;;9.00;99.90;;;;;;5037140;28;20443;-79
2023/05/29 03:46:57;;;;;;;12.45;2.55;;;9.00;99.90;;;;;;5020344;28;20393;-78
2023/05/29 03:49:24;;;;;;;13.52;2.35;;;9.00;99.90;;;;;;5018697;28;20049;-78
2023/05/29 03:51:51;;;;;;;10.07;2.15;;;9.00;99.90;;;;;;5037691;28;20077;-79
2023/05/29 03:54:18;;;;;;;8.40;2.05;;;9.00;99.90;;;;;;5026372;28;20098;-78
2023/05/29 03:56:45;;;;;;;16.38;2.05;;;9.00;99.90;;;;;;5038660;28;20126;-79
2023/05/29 03:59:13;;;;;;;8.45;2.33;;;8.90;99.90;;;;;;5039393;28;20053;-79
2023/05/29 04:01:40;;;;;;;20.67;2.63;;;8.90;99.90;;;;;;5039764;28;20102;-79
2023/05/29 04:04:06;;;;;;;9.65;2.50;;;8.90;99.90;;;;;;5038637;28;20139;-79
2023/05/29 04:06:38;;;;;;;8.40;1.75;;;9.00;99.90;;;;;;5039584;28;20102;-79
2023/05/29 04:09:06;;;;;;;12.63;2.22;;;9.00;99.90;;;;;;5038444;28;20446;-79
2023/05/29 04:11:36;;;;;;;10.15;1.90;;;9.00;99.90;;;;;;5039655;28;20375;-78
2023/05/29 04:14:03;;;;;;;9.73;2.55;;;9.00;99.90;;;;;;5039561;28;20041;-78
2023/05/29 04:16:31;;;;;;;11.38;1.77;;;9.00;99.90;;;;;;5038611;28;20079;-79
2023/05/29 04:18:59;;;;;;;13.18;2.40;;;9.00;99.90;;;;;;5039068;28;20083;-79
2023/05/29 04:21:29;;;;;;;15.88;2.50;;;9.00;99.90;;;;;;5023390;28;20130;-78
2023/05/29 04:23:59;;;;;;;8.52;1.75;;;9.00;99.90;;;;;;5038186;28;20052;-78
2023/05/29 04:26:26;;;;;;;9.40;1.80;;;8.90;99.90;;;;;;5056765;28;20076;-78
2023/05/29 04:28:56;;;;;;;11.25;1.85;;;8.90;99.90;;;;;;5038858;28;20041;-78
2023/05/29 04:31:25;;;;;;;13.35;2.20;;;9.00;99.90;;;;;;5039060;28;20045;-78
2023/05/29 04:33:56;;;;;;;19.30;2.05;;;9.00;99.90;;;;;;5056909;28;20033;-78
2023/05/29 04:36:25;;;;;;;13.05;2.28;;;9.10;99.90;;;;;;5037197;28;20072;-78
2023/05/29 04:39:01;;;;;;;4.97;2.22;;;9.10;99.90;;;;;;5039053;28;20083;-79
2023/05/29 04:41:30;;;;;;;13.27;2.50;;;9.20;99.90;;;;;;5038767;28;20083;-78
2023/05/29 04:43:59;;;;;;;6.75;1.92;;;9.20;99.90;;;;;;5063391;28;20052;-79
2023/05/29 04:46:34;;;;;;;10.82;2.00;;;9.40;99.90;;;;;;5059876;28;20056;-78
2023/05/29 04:49:02;;;;;;;7.65;2.13;;;9.40;99.90;;;;;;5073951;28;20048;-79
2023/05/29 04:51:30;;;;;;;7.28;1.88;;;9.50;99.90;;;;;;5075378;28;20110;-78
2023/05/29 04:53:56;;;;;;;7.03;1.85;;;9.50;99.90;;;;;;5075103;28;20089;-78
2023/05/29 04:56:23;;;;;;;11.40;2.55;;;9.60;99.90;;;;;;5074325;28;20127;-79
2023/05/29 04:58:50;;;;;;;8.15;1.77;;;9.70;99.90;;;;;;5074985;28;20090;-78
2023/05/29 05:01:18;;;;;;;6.35;1.52;;;9.70;99.90;;;;;;5075143;28;20090;-79
2023/05/29 05:03:44;;;;;;;19.33;2.50;;;9.80;99.90;;;;;;5057657;28;20268;-79
2023/05/29 05:06:12;;;;;;;10.55;1.70;;;9.80;99.90;;;;;;5075020;28;20033;-79
2023/05/29 05:08:40;;;;;;;11.85;2.33;;;9.90;99.90;;;;;;5074804;28;20044;-79
2023/05/29 05:11:07;;;;;;;9.50;1.65;;;9.90;99.90;;;;;;5057617;28;20072;-78
2023/05/29 05:13:34;;;;;;;12.77;1.88;;;10.00;99.90;;;;;;5074984;28;20052;-79
2023/05/29 05:16:03;;;;;;;10.32;2.10;;;10.00;99.90;;;;;;5073615;28;20044;-79
2023/05/29 05:18:31;;;;;;;8.02;1.77;;;10.10;99.90;;;;;;5058022;28;20053;-79
2023/05/29 05:21:03;;;;;;;14.43;2.40;;;10.10;99.90;;;;;;5059136;28;20040;-80
2023/05/29 05:23:31;;;;;;;7.30;2.17;;;10.20;99.90;;;;;;5073801;28;20044;-79
2023/05/29 05:26:15;;;;;;;8.80;1.77;;;10.30;99.90;;;;;;5074357;28;20045;-79
2023/05/29 05:28:42;;;;;;;12.77;2.05;;;10.50;99.90;;;;;;5074319;28;20090;-78
2023/05/29 05:31:11;;;;;;;14.35;2.42;;;10.70;99.90;;;;;;5073506;28;20044;-79
2023/05/29 05:33:38;;;;;;;7.38;2.00;;;10.80;99.90;;;;;;5074649;28;20479;-79
2023/05/29 05:36:05;;;;;;;10.25;2.22;;;10.90;99.90;;;;;;5056882;28;20048;-79
2023/05/29 05:38:32;;;;;;;8.95;2.08;;;10.90;99.90;;;;;;5074107;28;20131;-78
2023/05/29 05:40:58;;;;;;;12.27;2.00;;;11.00;99.90;;;;;;5074423;28;20098;-79
2023/05/29 05:43:30;;;;;;;14.18;2.08;;;11.00;99.90;;;;;;5073306;28;20140;-79
2023/05/29 05:46:05;;;;;;;7.60;2.03;;;11.00;99.90;;;;;;5058909;28;20066;-78
2023/05/29 05:48:34;;;;;;;8.30;2.13;;;11.10;99.90;;;;;;5054106;28;20045;-79
2023/05/29 05:51:01;;;;;;;10.88;2.17;;;11.20;99.90;;;;;;5053256;28;20075;-79
2023/05/29 05:53:27;;;;;;;11.70;2.03;;;11.30;99.90;;;;;;5054127;28;20073;-79
2023/05/29 05:55:54;;;;;;;8.98;2.20;;;11.30;99.90;;;;;;5053832;28;20072;-79
2023/05/29 05:58:21;;;;;;;9.27;2.50;;;11.40;99.90;;;;;;5054189;28;20060;-79
2023/05/29 06:00:48;;;;;;;10.13;1.73;;;11.40;99.90;;;;;;5059573;28;20618;-79
2023/05/29 06:03:15;;;;;;;9.20;2.08;;;11.30;99.90;;;;;;5072974;28;20094;-79
2023/05/29 06:05:54;;;;;;;12.38;1.90;;;11.30;99.90;;;;;;5059193;28;20037;-79
2023/05/29 06:08:20;;;;;;;8.50;1.85;;;11.30;99.90;;;;;;5073885;28;20055;-79
2023/05/29 06:10:47;;;;;;;10.82;2.20;;;11.30;99.90;;;;;;5056472;28;20131;-79
2023/05/29 06:13:16;;;;;;;11.05;2.47;;;11.40;99.90;;;;;;5074878;28;20531;-80
2023/05/29 06:15:48;;;;;;;9.70;2.30;;;11.40;99.90;;;;;;5056626;28;20083;-78
2023/05/29 06:18:15;;;;;;;11.70;2.38;;;11.50;99.90;;;;;;5073791;28;20390;-79
2023/05/29 06:20:42;;;;;;;8.90;2.17;;;11.60;99.90;;;;;;5056848;28;20095;-79
2023/05/29 06:23:08;;;;;;;10.77;2.08;;;11.80;99.90;;;;;;5073628;28;20080;-79
2023/05/29 06:25:37;;;;;;;15.25;2.63;;;12.00;99.90;;;;;;5073857;28;20052;-79
2023/05/29 06:28:06;;;;;;;8.38;2.08;;;12.20;99.90;;;;;;5073604;28;20474;-79
2023/05/29 06:30:33;;;;;;;8.90;1.65;;;12.40;99.90;;;;;;5055785;28;20093;-79
2023/05/29 06:33:05;;;;;;;12.82;2.45;;;12.50;99.90;;;;;;5073658;28;20045;-79
2023/05/29 06:35:34;;;;;;;16.17;1.88;;;12.60;99.90;;;;;;5073652;28;20167;-78
2023/05/29 06:38:00;;;;;;;11.30;2.63;;;12.80;99.90;;;;;;5072782;28;20382;-79
2023/05/29 06:40:27;;;;;;;6.95;2.17;;;12.90;99.90;;;;;;5073199;28;20044;-78
2023/05/29 06:42:54;;;;;;;15.93;2.13;;;13.10;99.90;;;;;;5072167;28;20490;-78
2023/05/29 06:45:35;;;;;;;8.27;1.80;;;13.10;99.90;;;;;;5073489;28;20478;-79
2023/05/29 06:48:02;;;;;;;8.48;1.83;;;13.10;99.90;;;;;;5074286;28;20047;-79
2023/05/29 06:50:28;;;;;;;7.57;1.73;;;13.00;99.90;;;;;;5069205;28;20115;-79
2023/05/29 06:53:02;;;;;;;11.65;1.80;;;12.90;99.90;;;;;;5067194;28;20036;-79
2023/05/29 06:55:46;;;;;;;12.05;1.90;;;12.90;99.90;;;;;;5072510;28;20045;-79
2023/05/29 06:58:13;;;;;;;9.30;2.08;;;12.90;99.90;;;;;;5073342;28;20102;-79
2023/05/29 07:00:41;;;;;;;11.40;2.03;;;12.90;99.90;;;;;;5075824;28;20041;-78
2023/05/29 07:03:31;;;;;;;9.38;1.80;;;13.00;99.90;;;;;;5055354;28;20137;-79
2023/05/29 07:05:58;;;;;;;9.80;2.00;;;12.90;99.90;;;;;;5060284;28;20082;-80
2023/05/29 07:08:25;;;;;;;10.20;1.77;;;13.00;99.90;;;;;;5077141;28;20119;-79
2023/05/29 07:10:52;;;;;;;11.73;2.53;;;13.00;99.90;;;;;;5059434;28;20111;-79
2023/05/29 07:13:20;;;;;;;12.63;2.15;;;13.30;99.90;;;;;;5060844;28;20043;-80
2023/05/29 07:15:47;;;;;;;13.95;2.30;;;13.50;99.90;;;;;;5058334;28;20479;-79
2023/05/29 07:18:14;;;;;;;8.88;1.92;;;13.60;99.90;;;;;;5045113;28;20455;-79
2023/05/29 07:20:41;;;;;;;11.20;2.50;;;13.70;99.90;;;;;;5059345;28;20045;-79
2023/05/29 07:23:11;;;;;;;8.88;2.05;;;13.50;99.90;;;;;;5055954;28;20120;-79
2023/05/29 07:25:38;;;;;;;9.80;1.83;;;13.40;99.90;;;;;;5057840;28;20041;-80
2023/05/29 07:28:05;;;;;;;12.10;2.20;;;13.50;99.90;;;;;;5057053;28;20111;-80
2023/05/29 07:30:48;;;;;;;12.18;2.00;;;13.50;99.90;;;;;;5055917;28;20076;-80
2023/05/29 07:33:15;;;;;;;9.52;1.88;;;13.50;99.90;;;;;;5056712;28;20045;-79
2023/05/29 07:35:43;;;;;;;13.77;2.40;;;13.60;99.90;;;;;;5039233;28;20388;-78
2023/05/29 07:38:09;;;;;;;13.18;1.95;;;13.70;99.90;;;;;;5057978;28;20068;-79
2023/05/29 07:40:37;;;;;;;14.43;2.20;;;13.80;99.90;;;;;;5056408;28;20041;-79
2023/05/29 07:43:29;;;;;;;9.35;2.25;;;13.70;99.90;;;;;;5055579;28;20068;-79
2023/05/29 07:46:03;;;;;;;13.82;2.10;;;13.70;99.90;;;;;;5062755;28;20045;-79
2023/05/29 07:48:30;;;;;;;8.65;2.08;;;13.80;99.90;;;;;;5056121;28;20468;-79
2023/05/29 07:50:58;;;;;;;8.57;1.80;;;13.80;99.90;;;;;;5038883;28;20037;-79
2023/05/29 07:53:27;;;;;;;16.15;2.50;;;13.80;99.90;;;;;;5040427;28;20072;-79
2023/05/29 07:55:55;;;;;;;12.88;2.03;;;13.80;99.90;;;;;;5073841;28;20471;-79
2023/05/29 07:58:22;;;;;;;5.45;1.95;;;13.80;99.90;;;;;;5075974;28;20068;-79
2023/05/29 08:00:49;;;;;;;9.50;2.00;;;13.80;99.90;;;;;;5069729;28;20471;-79
2023/05/29 08:03:17;;;;;;;11.40;2.00;;;13.90;99.90;;;;;;5055350;28;20045;-79
2023/05/29 08:06:13;;;;;;;6.75;2.00;;;14.00;99.90;;;;;;5038227;28;20380;-79
2023/05/29 08:08:41;;;;;;;13.95;2.13;;;14.10;99.90;;;;;;5056253;28;20436;-79
2023/05/29 08:11:07;;;;;;;11.43;2.47;;;14.20;99.90;;;;;;5054758;28;20041;-79
2023/05/29 08:13:34;;;;;;;10.25;2.00;;;14.20;99.90;;;;;;5056155;28;20060;-79
2023/05/29 08:16:01;;;;;;;15.10;2.10;;;14.30;99.90;;;;;;5055066;28;20048;-78
2023/05/29 08:18:28;;;;;;;9.20;2.20;;;14.40;99.90;;;;;;5055776;28;20037;-79
2023/05/29 08:20:54;;;;;;;15.00;2.75;;;14.40;99.90;;;;;;5057070;28;20041;-79
2023/05/29 08:23:22;;;;;;;20.70;2.40;;;14.50;99.90;;;;;;5055949;28;20474;-79
2023/05/29 08:25:48;;;;;;;11.95;2.20;;;14.70;99.90;;;;;;5056742;28;20069;-79
2023/05/29 08:28:15;;;;;;;11.00;2.17;;;14.90;99.90;;;;;;5056805;28;20367;-79
2023/05/29 08:30:42;;;;;;;11.95;1.88;;;14.90;99.90;;;;;;5055063;28;20067;-79
2023/05/29 08:33:08;;;;;;;10.45;1.95;;;15.00;99.90;;;;;;5056811;28;20471;-79
2023/05/29 08:35:36;;;;;;;9.00;2.03;;;15.00;99.90;;;;;;5056677;28;20415;-79
2023/05/29 08:38:03;;;;;;;7.50;1.80;;;15.00;99.90;;;;;;5055643;28;20045;-79
2023/05/29 08:40:31;;;;;;;14.00;1.73;;;14.90;99.90;;;;;;5059644;28;20056;-79
2023/05/29 08:42:58;;;;;;;6.57;1.73;;;14.90;99.90;;;;;;5049738;28;20515;-79
2023/05/29 08:45:25;;;;;;;15.07;2.00;;;15.00;99.90;;;;;;5036225;28;20329;-79
2023/05/29 08:47:51;;;;;;;12.65;2.03;;;15.20;99.90;;;;;;5036441;28;20065;-79
2023/05/29 08:50:18;;;;;;;7.47;1.70;;;15.30;99.90;;;;;;5035080;28;20041;-79
2023/05/29 08:52:45;;;;;;;7.90;2.22;;;15.20;99.90;;;;;;5036570;28;20435;-79
2023/05/29 08:55:11;;;;;;;12.70;2.33;;;15.10;99.90;;;;;;5036333;28;20068;-79
2023/05/29 08:57:39;;;;;;;9.27;2.00;;;15.20;99.90;;;;;;5018142;28;20357;-79
2023/05/29 09:00:09;;;;;;;10.43;1.75;;;15.30;99.90;;;;;;5036026;28;20045;-79
2023/05/29 09:02:36;;;;;;;14.25;2.42;;;15.50;99.90;;;;;;5035445;28;20380;-76
2023/05/29 09:05:03;;;;;;;16.27;2.58;;;15.30;99.90;;;;;;5036283;28;20056;-77
2023/05/29 09:07:32;;;;;;;8.40;2.00;;;15.30;99.90;;;;;;5035995;28;20042;-77
2023/05/29 09:10:00;;;;;;;9.02;2.53;;;15.30;99.90;;;;;;5017144;28;20460;-77
2023/05/29 09:12:27;;;;;;;8.45;2.00;;;15.40;99.90;;;;;;5036032;28;20045;-78
2023/05/29 09:14:54;;;;;;;7.00;1.98;;;15.60;99.90;;;;;;5035973;28;20037;-77
2023/05/29 09:17:20;;;;;;;10.93;1.85;;;15.80;99.90;;;;;;5017720;28;20503;-77
2023/05/29 09:19:47;;;;;;;12.55;2.25;;;15.80;99.90;;;;;;5018306;28;20049;-77
2023/05/29 09:22:14;;;;;;;11.73;1.92;;;16.00;99.90;;;;;;5019068;28;20045;-77
2023/05/29 09:24:41;;;;;;;10.95;1.92;;;16.10;99.90;;;;;;5017879;28;20064;-78
2023/05/29 09:27:11;;;;;;;13.60;2.72;;;16.10;99.90;;;;;;5018836;28;20045;-77
2023/05/29 09:29:38;;;;;;;14.52;1.98;;;15.90;99.90;;;;;;5016752;28;20042;-78
2023/05/29 09:32:05;;;;;;;7.88;1.90;;;15.80;99.90;;;;;;5035716;28;20052;-79
2023/05/29 09:34:33;;;;;;;8.13;2.00;;;15.90;99.90;;;;;;5039869;28;20471;-78
2023/05/29 09:37:02;;;;;;;9.75;1.77;;;16.30;99.90;;;;;;5017367;28;20050;-78
2023/05/29 09:39:29;;;;;;;8.40;2.05;;;16.60;99.90;;;;;;5017770;28;20045;-79
2023/05/29 09:41:56;;;;;;;15.75;2.30;;;16.80;99.90;;;;;;5017955;28;20468;-78
2023/05/29 09:44:23;;;;;;;9.65;2.20;;;17.10;99.90;;;;;;5034427;28;20068;-78
2023/05/29 09:46:50;;;;;;;9.15;2.38;;;17.30;99.90;;;;;;5018074;28;20056;-78
2023/05/29 09:49:16;;;;;;;10.10;2.20;;;17.50;99.90;;;;;;5017467;28;20476;-78
2023/05/29 09:51:47;;;;;;;11.30;2.05;;;17.80;99.90;;;;;;5039296;28;20110;-78
2023/05/29 09:54:14;;;;;;;9.60;2.10;;;18.20;99.90;;;;;;5055072;28;20041;-78
2023/05/29 09:56:41;;;;;;;6.97;1.70;;;18.00;99.90;;;;;;5036567;28;20041;-77
2023/05/29 09:59:08;;;;;;;10.90;2.47;;;18.00;99.90;;;;;;5054960;28;20045;-77
2023/05/29 10:01:34;;;;;;;16.95;2.30;;;17.70;99.90;;;;;;5055133;28;20352;-77
2023/05/29 10:04:02;;;;;;;9.80;2.28;;;17.70;99.90;;;;;;5036366;28;20102;-77
2023/05/29 10:06:29;;;;;;;9.98;2.17;;;17.70;99.90;;;;;;5054820;28;20033;-78
2023/05/29 10:08:57;;;;;;;9.05;2.10;;;17.70;99.90;;;;;;5054584;28;20040;-77
2023/05/29 10:11:26;;;;;;;7.50;2.10;;;17.70;99.90;;;;;;5036490;28;20456;-76
2023/05/29 10:13:52;;;;;;;12.77;2.10;;;17.80;99.90;;;;;;5039737;28;20056;-81
2023/05/29 10:16:19;;;;;;;8.38;2.17;;;17.60;99.90;;;;;;5015683;28;20033;-81
2023/05/29 10:18:51;;;;;;;15.45;2.13;;;17.50;99.90;;;;;;5025440;28;20479;-81
2023/05/29 10:21:18;;;;;;;9.43;2.13;;;17.60;99.90;;;;;;5026527;28;20053;-81
2023/05/29 10:23:44;;;;;;;11.23;2.17;;;17.90;99.90;;;;;;5010144;28;20050;-79
2023/05/29 10:26:11;;;;;;;13.93;2.13;;;17.90;99.90;;;;;;5024981;28;20107;-82
2023/05/29 10:28:38;;;;;;;6.68;1.90;;;17.90;99.90;;;;;;5026296;28;20162;-81
2023/05/29 10:31:05;;;;;;;10.40;2.47;;;18.20;99.90;;;;;;5010776;28;20056;-82
2023/05/29 10:33:32;;;;;;;12.15;2.42;;;18.30;99.90;;;;;;5045439;28;20033;-83
2023/05/29 10:35:59;;;;;;;9.07;2.38;;;18.50;99.90;;;;;;5022640;28;20244;-83
2023/05/29 10:38:26;;;;;;;7.55;2.03;;;18.60;99.90;;;;;;5025212;28;20033;-80
2023/05/29 10:40:53;;;;;;;11.43;2.35;;;18.90;99.90;;;;;;5050493;28;20098;-79
2023/05/29 10:43:19;;;;;;;16.63;2.42;;;18.80;99.90;;;;;;5031722;28;20085;-80
2023/05/29 10:45:46;;;;;;;9.88;2.13;;;19.10;99.90;;;;;;5033283;28;20046;-79
2023/05/29 10:48:14;;;;;;;12.52;2.25;;;19.00;99.90;;;;;;5033272;28;20080;-79
2023/05/29 10:50:41;;;;;;;7.55;1.88;;;19.00;99.90;;;;;;5034921;28;20041;-80
2023/05/29 10:53:09;;;;;;;9.13;2.22;;;18.70;99.90;;;;;;5031838;28;20036;-79
2023/05/29 10:55:36;;;;;;;8.40;2.20;;;18.60;99.90;;;;;;5037342;28;20079;-80
2023/05/29 10:58:03;;;;;;;13.38;2.13;;;18.40;99.90;;;;;;5024740;28;20053;-80
2023/05/29 11:00:29;;;;;;;9.20;2.40;;;18.20;99.90;;;;;;5031452;28;20077;-79
2023/05/29 11:02:56;;;;;;;8.43;2.20;;;18.30;99.90;;;;;;5040289;28;20041;-80
2023/05/29 11:05:26;;;;;;;8.13;2.05;;;18.40;99.90;;;;;;5036306;28;20049;-79
2023/05/29 11:07:53;;;;;;;10.45;2.72;;;18.60;99.90;;;;;;5053551;28;20041;-80
2023/05/29 11:10:20;;;;;;;7.32;2.05;;;18.60;99.90;;;;;;5017212;28;20451;-80
2023/05/29 11:12:46;;;;;;;10.95;2.20;;;18.90;99.90;;;;;;5033273;28;20044;-80
2023/05/29 11:15:13;;;;;;;7.90;2.13;;;19.20;99.90;;;;;;5033435;28;20041;-79
2023/05/29 11:17:40;;;;;;;12.27;2.38;;;19.50;99.90;;;;;;5032394;28;20065;-79
2023/05/29 11:20:07;;;;;;;8.05;2.28;;;19.60;99.90;;;;;;5033171;28;20049;-80
2023/05/29 11:22:34;;;;;;;13.63;2.67;;;19.20;99.90;;;;;;5032749;28;20041;-80
2023/05/29 11:25:01;;;;;;;10.50;2.47;;;19.10;99.90;;;;;;5018010;28;20134;-79
2023/05/29 11:27:30;;;;;;;14.73;2.67;;;19.00;99.90;;;;;;5033376;28;20052;-80
2023/05/29 11:29:57;;;;;;;11.95;2.22;;;18.60;99.90;;;;;;5033380;28;20049;-78
2023/05/29 11:32:24;;;;;;;9.32;2.15;;;18.60;99.90;;;;;;5021465;28;20029;-79
2023/05/29 11:34:51;;;;;;;7.60;2.08;;;19.10;99.90;;;;;;5053508;28;20116;-79
2023/05/29 11:37:18;;;;;;;11.27;2.80;;;19.60;99.90;;;;;;5035548;28;20110;-79
2023/05/29 11:39:45;;;;;;;11.23;2.50;;;19.60;99.90;;;;;;5036516;28;20460;-80
2023/05/29 11:42:12;;;;;;;9.88;2.78;;;19.60;99.90;;;;;;5053486;28;20430;-79
2023/05/29 11:44:39;;;;;;;13.38;2.20;;;19.90;99.90;;;;;;5052622;28;20102;-79
2023/05/29 11:47:07;;;;;;;12.02;2.33;;;19.50;99.90;;;;;;5054066;28;20112;-79
2023/05/29 11:49:34;;;;;;;8.10;2.30;;;20.20;99.90;;;;;;5045323;28;20407;-83
2023/05/29 11:52:00;;;;;;;7.28;2.13;;;20.20;99.90;;;;;;5048744;28;20057;-82
2023/05/29 11:54:46;;;;;;;13.85;3.03;;;20.00;99.30;;;;;;5031100;28;20046;-83
2023/05/29 11:57:16;;;;;;;16.80;3.10;;;20.20;99.40;;;;;;5019462;28;20140;-82
2023/05/29 11:59:45;;;;;;;9.63;2.50;;;20.00;99.30;;;;;;5042626;28;20048;-81
2023/05/29 12:02:12;;;;;;;7.75;2.10;;;20.00;99.50;;;;;;5048009;28;20437;-82
2023/05/29 12:04:39;;;;;;;11.30;2.50;;;19.90;99.90;;;;;;5022706;28;20037;-82
2023/05/29 12:07:07;;;;;;;22.38;2.90;;;19.90;99.70;;;;;;5037288;28;20044;-81
2023/05/29 12:09:33;;;;;;;12.50;3.88;;;19.70;99.30;;;;;;5026277;28;20141;-81
2023/05/29 12:12:00;;;;;;;9.75;2.55;;;19.90;99.90;;;;;;5013926;28;20038;-81
2023/05/29 12:14:26;;;;;;;8.35;2.78;;;20.00;99.90;;;;;;5014325;28;20135;-81
2023/05/29 12:16:53;;;;;;;10.95;2.53;;;19.70;99.80;;;;;;5041095;28;20117;-81
2023/05/29 12:19:20;;;;;;;11.48;2.30;;;19.60;99.90;;;;;;5001976;28;20057;-81
2023/05/29 12:21:47;;;;;;;11.15;2.20;;;19.20;99.90;;;;;;5019333;28;20376;-81
2023/05/29 12:24:13;;;;;;;13.75;2.70;;;19.10;99.90;;;;;;5018393;28;20073;-81
2023/05/29 12:26:40;;;;;;;11.48;2.13;;;19.60;99.40;;;;;;5036483;28;20088;-82
2023/05/29 12:29:07;;;;;;;9.38;2.55;;;19.70;99.60;;;;;;5018048;28;20045;-81
2023/05/29 12:31:34;;;;;;;9.30;2.53;;;19.40;99.90;;;;;;5018994;28;20120;-82
2023/05/29 12:34:01;;;;;;;10.27;2.70;;;20.10;99.80;;;;;;5051727;28;20041;-82
2023/05/29 12:36:28;;;;;;;8.80;2.53;;;20.70;96.50;;;;;;5037733;28;20037;-82
2023/05/29 12:38:57;;;;;;;10.07;2.47;;;21.40;95.80;;;;;;5038626;28;20110;-82
2023/05/29 12:41:25;;;;;;;9.55;2.97;;;22.00;94.30;;;;;;5055877;28;20418;-80
2023/05/29 12:43:52;;;;;;;13.02;2.80;;;22.10;94.90;;;;;;5054839;28;20081;-81
2023/05/29 12:46:19;;;;;;;9.73;2.55;;;22.20;94.00;;;;;;5038531;28;20095;-81